Time;durP1;ratioP1;P1;durP2;ratioP2;P2;SDS_P1;SDS_P2;PMS_P1;PMS_P2;Temp;Humidity;BMP_temperature;BMP_pressure;BME280_temperature;BME280_humidity;BME280_pressure;Samples;Min_cycle;Max_cycle;Signal;HPM_P1;HPM_P2
2021/12/24 00:01:04;;;;;;;32.08;17.67;;;;;;;-140.05;100.00;61859.38;5035767;28;20196;-55
2021/12/24 00:03:32;;;;;;;31.80;17.42;;;;;;;-140.05;100.00;61859.38;5034975;28;20200;-61
2021/12/24 00:06:00;;;;;;;32.97;18.48;;;;;;;-140.05;100.00;61859.38;5049908;28;20553;-61
2021/12/24 00:08:27;;;;;;;34.10;18.17;;;;;;;-140.05;100.00;61859.38;5050053;28;20573;-58
2021/12/24 00:11:01;;;;;;;34.88;18.45;;;;;;;-140.05;100.00;61859.38;5051279;28;20646;-59
2021/12/24 00:13:34;;;;;;;33.05;19.02;;;;;;;-140.05;100.00;61859.38;5050549;28;20191;-59
2021/12/24 00:16:10;;;;;;;33.55;18.17;;;;;;;-140.05;100.00;61859.38;5023987;28;20205;-61
2021/12/24 00:18:43;;;;;;;33.63;17.98;;;;;;;-140.05;100.00;61859.38;5034483;28;20196;-62
2021/12/24 00:37:29;;;;;;;34.22;19.13;;;;;;;-140.05;100.00;61859.38;5040933;28;20208;-56
2021/12/24 00:42:45;;;;;;;35.53;19.13;;;;;;;-140.05;100.00;61859.38;5047784;28;20566;-59
2021/12/24 00:45:14;;;;;;;38.28;19.52;;;;;;;-140.05;100.00;61859.38;5038116;28;20266;-63
2021/12/24 00:47:42;;;;;;;34.17;18.80;;;;;;;-140.05;100.00;61859.38;5040486;28;20289;-59
2021/12/24 00:50:15;;;;;;;33.72;18.38;;;;;;;-140.05;100.00;61859.38;5045470;28;20978;-58
2021/12/24 00:55:22;;;;;;;35.60;20.00;;;;;;;-140.05;100.00;61859.38;5048255;28;20196;-60
2021/12/24 00:57:58;;;;;;;31.52;17.95;;;;;;;-140.05;100.00;61859.38;5064377;28;20208;-62
2021/12/24 01:00:38;;;;;;;37.35;17.45;;;;;;;-140.05;100.00;61859.38;5033607;28;20259;-58
2021/12/24 01:03:07;;;;;;;33.92;18.17;;;;;;;-140.05;100.00;61859.38;5029568;28;20283;-59
2021/12/24 01:05:36;;;;;;;31.48;18.17;;;;;;;-140.05;100.00;61859.38;5037098;28;20220;-63
2021/12/24 01:08:05;;;;;;;32.75;18.40;;;;;;;-140.05;100.00;61859.38;5037796;28;20215;-59
2021/12/24 01:10:46;;;;;;;32.95;18.88;;;;;;;-140.05;100.00;61859.38;5037487;28;20326;-54
2021/12/24 01:13:13;;;;;;;35.10;18.00;;;;;;;-140.05;100.00;61859.38;5049372;28;20531;-58
2021/12/24 01:15:52;;;;;;;32.05;17.70;;;;;;;-140.05;100.00;61859.38;5064714;28;20226;-62
2021/12/24 01:19:09;;;;;;;32.60;18.23;;;;;;;-140.05;100.00;61859.38;5048956;28;20207;-59
2021/12/24 01:21:24;;;;;;;34.53;18.30;;;;;;;-140.05;100.00;61859.38;5049605;28;20707;-59
2021/12/24 01:24:05;;;;;;;34.60;18.25;;;;;;;-140.05;100.00;61859.38;5047940;28;20256;-61
2021/12/24 01:27:03;;;;;;;31.45;17.35;;;;;;;-140.05;100.00;61859.38;5047569;28;20649;-54
2021/12/24 01:38:12;;;;;;;40.63;22.38;;;;;;;-140.05;100.00;61859.38;5012433;28;20258;-62
2021/12/24 01:43:08;;;;;;;65.25;32.55;;;;;;;-140.05;100.00;61859.38;5053298;28;20184;-58
2021/12/24 01:45:36;;;;;;;60.58;30.95;;;;;;;-140.05;100.00;61859.38;5046751;28;20353;-62
2021/12/24 01:48:09;;;;;;;61.50;28.90;;;;;;;-140.05;100.00;61859.38;5051444;28;20213;-59
2021/12/24 01:50:42;;;;;;;58.72;29.52;;;;;;;-140.05;100.00;61859.38;5025253;28;20931;-60
2021/12/24 01:53:10;;;;;;;49.70;25.42;;;;;;;-140.05;100.00;61859.38;5041836;28;20201;-58
2021/12/24 01:55:40;;;;;;;44.15;23.50;;;;;;;-140.05;100.00;61859.38;5036029;28;20351;-60
2021/12/24 01:58:09;;;;;;;48.92;24.17;;;;;;;-140.05;100.00;61859.38;5038248;28;20211;-57
2021/12/24 02:00:40;;;;;;;44.83;23.95;;;;;;;-140.05;100.00;61859.38;5041910;28;20311;-61
2021/12/24 02:03:09;;;;;;;46.20;23.58;;;;;;;-140.05;100.00;61859.38;5042612;28;20204;-62
2021/12/24 02:05:36;;;;;;;45.03;23.17;;;;;;;-140.05;100.00;61859.38;5056166;28;20224;-64
2021/12/24 02:08:04;;;;;;;46.35;21.95;;;;;;;-140.05;100.00;61859.38;5039051;28;20204;-66
2021/12/24 02:10:31;;;;;;;42.10;21.95;;;;;;;-140.05;100.00;61859.38;5051589;28;20201;-65
2021/12/24 02:12:58;;;;;;;41.53;22.83;;;;;;;-140.05;100.00;61859.38;5052470;28;20196;-58
2021/12/24 02:29:07;;;;;;;47.58;23.48;;;;;;;-140.05;100.00;61859.38;5051120;28;20208;-63
2021/12/24 02:31:34;;;;;;;48.67;25.10;;;;;;;-140.05;100.00;61859.38;5039106;28;20723;-61
2021/12/24 02:34:01;;;;;;;46.92;24.52;;;;;;;-140.05;100.00;61859.38;5043796;28;20197;-61
2021/12/24 02:36:29;;;;;;;43.70;22.63;;;;;;;-140.05;100.00;61859.38;5041385;28;20905;-64
2021/12/24 02:38:56;;;;;;;41.08;22.65;;;;;;;-140.05;100.00;61859.38;5040499;28;20212;-59
2021/12/24 02:41:23;;;;;;;44.40;21.85;;;;;;;-140.05;100.00;61859.38;5052866;28;20196;-58
2021/12/24 02:43:51;;;;;;;39.95;21.63;;;;;;;-140.05;100.00;61859.38;5068784;28;20204;-60
2021/12/24 02:46:35;;;;;;;39.08;20.95;;;;;;;-140.05;100.00;61859.38;5048349;28;20216;-61
2021/12/24 02:49:16;;;;;;;36.00;21.25;;;;;;;-140.05;100.00;61859.38;5038473;28;20271;-60
2021/12/24 02:54:30;;;;;;;35.60;20.20;;;;;;;-140.05;100.00;61859.38;5041564;28;20261;-62
2021/12/24 02:57:07;;;;;;;42.65;22.52;;;;;;;-140.05;100.00;61859.38;5042147;28;20331;-59
2021/12/24 02:59:36;;;;;;;38.72;20.23;;;;;;;-140.05;100.00;61859.38;5060532;28;20628;-59
2021/12/24 03:02:04;;;;;;;41.17;22.25;;;;;;;-140.05;100.00;61859.38;5038186;28;20262;-60
2021/12/24 03:04:31;;;;;;;37.67;21.17;;;;;;;-140.05;100.00;61859.38;5057768;28;20208;-56
2021/12/24 03:06:57;;;;;;;38.90;22.15;;;;;;;-140.05;100.00;61859.38;5036221;28;20222;-60
2021/12/24 03:09:24;;;;;;;42.75;22.45;;;;;;;-140.05;100.00;61859.38;5043802;28;20195;-59
2021/12/24 03:11:53;;;;;;;42.70;22.50;;;;;;;-140.05;100.00;61859.38;5050159;28;20238;-61
2021/12/24 03:14:21;;;;;;;40.10;22.50;;;;;;;-140.05;100.00;61859.38;5051269;28;20188;-57
2021/12/24 03:16:56;;;;;;;39.67;22.50;;;;;;;-140.05;100.00;61859.38;5050026;28;20726;-61
2021/12/24 03:19:29;;;;;;;45.72;23.70;;;;;;;-140.05;100.00;61859.38;5046746;28;20207;-59
2021/12/24 03:22:51;;;;;;;40.22;22.65;;;;;;;-140.05;100.00;61859.38;5048918;28;20221;-60
2021/12/24 03:24:45;;;;;;;39.63;21.45;;;;;;;-140.05;100.00;61859.38;5025286;28;20911;-61
2021/12/24 03:27:12;;;;;;;47.58;22.75;;;;;;;-140.05;100.00;61859.38;5042115;28;20228;-61
2021/12/24 03:29:39;;;;;;;39.22;21.63;;;;;;;-140.05;100.00;61859.38;5040840;28;20239;-58
2021/12/24 03:32:07;;;;;;;43.63;21.88;;;;;;;-140.05;100.00;61859.38;5037453;28;20200;-59
2021/12/24 03:34:35;;;;;;;39.97;22.00;;;;;;;-140.05;100.00;61859.38;5045447;28;20554;-63
2021/12/24 03:37:04;;;;;;;43.88;23.00;;;;;;;-140.05;100.00;61859.38;5038440;28;20275;-59
2021/12/24 03:39:34;;;;;;;43.63;22.15;;;;;;;-140.05;100.00;61859.38;5036667;28;20242;-64
2021/12/24 03:42:06;;;;;;;43.92;22.88;;;;;;;-140.05;100.00;61859.38;5056482;28;20920;-60
2021/12/24 03:44:42;;;;;;;56.80;28.27;;;;;;;-140.05;100.00;61859.38;5057899;28;20227;-61
2021/12/24 03:47:18;;;;;;;54.65;28.45;;;;;;;-140.05;100.00;61859.38;5057026;28;20303;-61
2021/12/24 03:50:10;;;;;;;53.40;28.67;;;;;;;-140.05;100.00;61859.38;5049678;28;20204;-59
2021/12/24 03:53:02;;;;;;;63.78;30.73;;;;;;;-140.05;100.00;61859.38;5061481;28;20295;-60
2021/12/24 03:55:26;;;;;;;64.85;31.23;;;;;;;-140.05;100.00;61859.38;5048675;28;20219;-60
2021/12/24 03:57:53;;;;;;;65.20;32.95;;;;;;;-140.05;100.00;61859.38;5049856;28;20211;-60
2021/12/24 04:00:38;;;;;;;67.13;36.33;;;;;;;-140.05;100.00;61859.38;5048129;28;20701;-61
2021/12/24 04:03:34;;;;;;;68.20;37.05;;;;;;;-140.05;100.00;61859.38;5048341;28;20208;-61
2021/12/24 04:06:20;;;;;;;68.38;35.67;;;;;;;-140.05;100.00;61859.38;5050010;28;20773;-59
2021/12/24 04:09:21;;;;;;;73.78;35.53;;;;;;;-140.05;100.00;61859.38;5049091;28;20204;-61
2021/12/24 04:12:08;;;;;;;68.53;36.65;;;;;;;-140.05;100.00;61859.38;5050498;28;20244;-60
2021/12/24 04:14:35;;;;;;;69.10;35.33;;;;;;;-140.05;100.00;61859.38;5065300;28;20208;-61
2021/12/24 04:17:03;;;;;;;64.53;35.58;;;;;;;-140.05;100.00;61859.38;5050096;28;20204;-60
2021/12/24 04:25:08;;;;;;;58.35;31.95;;;;;;;-140.05;100.00;61859.38;5065819;28;20565;-58
2021/12/24 04:27:39;;;;;;;61.22;31.42;;;;;;;-140.05;100.00;61859.38;5048312;28;20220;-62
2021/12/24 04:30:14;;;;;;;64.05;32.15;;;;;;;-140.05;100.00;61859.38;5049082;28;20667;-62
2021/12/24 04:32:58;;;;;;;57.35;31.38;;;;;;;-140.05;100.00;61859.38;5054794;28;20293;-63
2021/12/24 04:51:45;;;;;;;60.72;30.92;;;;;;;-140.05;100.00;61859.38;5022334;28;20200;-57
2021/12/24 05:05:24;;;;;;;60.67;31.00;;;;;;;-140.05;100.00;61859.38;5048396;28;20693;-59
2021/12/24 05:10:28;;;;;;;60.53;32.25;;;;;;;-140.05;100.00;61859.38;5054535;28;20214;-63
2021/12/24 05:12:56;;;;;;;60.72;32.08;;;;;;;-140.05;100.00;61859.38;5063076;28;20291;-62
2021/12/24 05:15:36;;;;;;;60.80;29.88;;;;;;;-140.05;100.00;61859.38;5050126;28;20644;-63
2021/12/24 05:21:51;;;;;;;67.07;31.92;;;;;;;-140.05;100.00;61859.38;4991293;28;20241;-62
2021/12/24 05:24:23;;;;;;;64.03;30.50;;;;;;;-140.05;100.00;61859.38;5030685;28;20290;-59
2021/12/24 05:26:54;;;;;;;58.25;30.60;;;;;;;-140.05;100.00;61859.38;5043429;28;20660;-61
2021/12/24 05:29:23;;;;;;;58.85;29.70;;;;;;;-140.05;100.00;61859.38;5041412;28;20209;-61
2021/12/24 05:31:50;;;;;;;59.70;30.45;;;;;;;-140.05;100.00;61859.38;5058705;28;20232;-60
2021/12/24 05:34:18;;;;;;;60.80;29.00;;;;;;;-140.05;100.00;61859.38;5047783;28;20201;-62
2021/12/24 05:36:48;;;;;;;59.42;29.30;;;;;;;-140.05;100.00;61859.38;5041122;28;20212;-61
2021/12/24 05:39:17;;;;;;;56.65;29.08;;;;;;;-140.05;100.00;61859.38;5058811;28;20212;-61
2021/12/24 05:41:46;;;;;;;60.08;29.35;;;;;;;-140.05;100.00;61859.38;5042517;28;20197;-61
2021/12/24 05:44:16;;;;;;;53.85;28.38;;;;;;;-140.05;100.00;61859.38;5042244;28;20198;-61
2021/12/24 05:46:50;;;;;;;56.17;29.30;;;;;;;-140.05;100.00;61859.38;5041103;28;20255;-61
2021/12/24 05:49:34;;;;;;;55.60;28.95;;;;;;;-140.05;100.00;61859.38;5046140;28;20204;-59
2021/12/24 05:52:20;;;;;;;57.65;27.67;;;;;;;-140.05;100.00;61859.38;5041096;28;20203;-59
2021/12/24 05:55:13;;;;;;;57.70;29.77;;;;;;;-140.05;100.00;61859.38;5035844;28;20325;-59
2021/12/24 05:57:41;;;;;;;55.72;29.08;;;;;;;-140.05;100.00;61859.38;5021125;28;20283;-62
2021/12/24 06:00:09;;;;;;;55.20;29.42;;;;;;;-140.05;100.00;61859.38;5031109;28;20197;-61
2021/12/24 06:02:39;;;;;;;58.03;28.10;;;;;;;-140.05;100.00;61859.38;5016568;28;20217;-63
2021/12/24 06:05:07;;;;;;;55.75;28.70;;;;;;;-140.05;100.00;61859.38;5021935;28;20209;-58
2021/12/24 06:07:34;;;;;;;56.10;29.25;;;;;;;-140.05;100.00;61859.38;5018610;28;20221;-60
2021/12/24 06:10:01;;;;;;;54.03;29.13;;;;;;;-140.05;100.00;61859.38;5023410;28;20204;-60
2021/12/24 06:12:28;;;;;;;61.88;28.95;;;;;;;-140.05;100.00;61859.38;5023799;28;20178;-62
2021/12/24 06:15:02;;;;;;;61.53;30.33;;;;;;;-140.05;100.00;61859.38;5032887;28;20205;-59
2021/12/24 06:17:29;;;;;;;57.72;28.45;;;;;;;-140.05;100.00;61859.38;5032170;28;20204;-63
2021/12/24 06:19:56;;;;;;;53.67;28.75;;;;;;;-140.05;100.00;61859.38;5031555;28;20531;-61
2021/12/24 06:22:23;;;;;;;57.42;29.13;;;;;;;-140.05;100.00;61859.38;5030854;28;20211;-61
2021/12/24 06:24:50;;;;;;;52.83;29.65;;;;;;;-140.05;100.00;61859.38;5032196;28;20193;-61
2021/12/24 06:27:17;;;;;;;66.10;31.42;;;;;;;-140.05;100.00;61859.38;5031490;28;20209;-55
2021/12/24 06:29:44;;;;;;;57.90;31.67;;;;;;;-140.05;100.00;61859.38;5031058;28;20676;-57
2021/12/24 06:32:11;;;;;;;65.50;31.35;;;;;;;-140.05;100.00;61859.38;5032586;28;20237;-62
2021/12/24 06:34:38;;;;;;;57.10;30.80;;;;;;;-140.05;100.00;61859.38;5032343;28;20197;-59
2021/12/24 06:37:05;;;;;;;59.33;30.45;;;;;;;-140.05;100.00;61859.38;5032088;28;20188;-60
2021/12/24 06:39:32;;;;;;;56.53;31.77;;;;;;;-140.05;100.00;61859.38;5026541;28;20194;-62
2021/12/24 06:41:59;;;;;;;83.45;39.75;;;;;;;-140.05;100.00;61859.38;5019756;28;20205;-62
2021/12/24 06:44:26;;;;;;;95.13;47.25;;;;;;;-140.05;100.00;61859.38;5030911;28;20209;-64
2021/12/24 06:46:53;;;;;;;115.40;58.20;;;;;;;-140.05;100.00;61859.38;5030207;28;20708;-65
2021/12/24 06:49:20;;;;;;;127.38;62.50;;;;;;;-140.05;100.00;61859.38;5029733;28;20213;-62
2021/12/24 06:51:47;;;;;;;103.18;51.55;;;;;;;-140.05;100.00;61859.38;5017132;28;20212;-60
2021/12/24 06:54:14;;;;;;;104.47;52.50;;;;;;;-140.05;100.00;61859.38;5028999;28;20197;-62
2021/12/24 06:56:46;;;;;;;83.07;44.60;;;;;;;-140.05;100.00;61859.38;5040487;28;20311;-61
2021/12/24 06:59:14;;;;;;;74.05;39.50;;;;;;;-140.05;100.00;61859.38;5047386;28;20196;-63
2021/12/24 07:01:41;;;;;;;72.85;35.42;;;;;;;-140.05;100.00;61859.38;5048294;28;20563;-61
2021/12/24 07:04:08;;;;;;;66.20;33.95;;;;;;;-140.05;100.00;61859.38;5047715;28;20320;-62
2021/12/24 07:06:37;;;;;;;57.53;31.58;;;;;;;-140.05;100.00;61859.38;5048845;28;20688;-61
2021/12/24 07:09:04;;;;;;;73.05;36.30;;;;;;;-140.05;100.00;61859.38;5048816;28;20210;-63
2021/12/24 07:11:31;;;;;;;61.20;32.50;;;;;;;-140.05;100.00;61859.38;5048952;28;20211;-61
2021/12/24 07:13:58;;;;;;;63.25;34.03;;;;;;;-140.05;100.00;61859.38;5048603;28;20204;-63
2021/12/24 07:16:25;;;;;;;61.80;32.80;;;;;;;-140.05;100.00;61859.38;5048917;28;20200;-62
2021/12/24 07:18:52;;;;;;;58.63;31.35;;;;;;;-140.05;100.00;61859.38;5048723;28;20218;-59
2021/12/24 07:21:19;;;;;;;61.35;31.90;;;;;;;-140.05;100.00;61859.38;5048955;28;20273;-60
2021/12/24 07:23:46;;;;;;;61.20;32.35;;;;;;;-140.05;100.00;61859.38;5048441;28;20193;-62
2021/12/24 07:26:13;;;;;;;61.70;32.90;;;;;;;-140.05;100.00;61859.38;5048779;28;20226;-64
2021/12/24 07:28:40;;;;;;;93.82;52.03;;;;;;;-140.05;100.00;61859.38;5036932;28;20224;-61
2021/12/24 07:31:07;;;;;;;60.83;30.60;;;;;;;-140.05;100.00;61859.38;5041231;28;20200;-62
2021/12/24 07:33:34;;;;;;;56.60;29.65;;;;;;;-140.05;100.00;61859.38;5048296;28;20644;-61
2021/12/24 07:36:01;;;;;;;49.67;29.08;;;;;;;-140.05;100.00;61859.38;5050479;28;20275;-62
2021/12/24 07:38:28;;;;;;;52.92;28.75;;;;;;;-140.05;100.00;61859.38;5048986;28;20291;-65
2021/12/24 07:40:55;;;;;;;55.75;28.40;;;;;;;-140.05;100.00;61859.38;5048600;28;20667;-60
2021/12/24 07:43:22;;;;;;;52.22;28.63;;;;;;;-140.05;100.00;61859.38;5048120;28;20532;-62
2021/12/24 07:45:50;;;;;;;59.78;28.58;;;;;;;-140.05;100.00;61859.38;5046363;28;20200;-62
2021/12/24 07:48:26;;;;;;;55.85;29.13;;;;;;;-140.05;100.00;61859.38;5049528;28;20219;-60
2021/12/24 07:53:23;;;;;;;52.72;29.95;;;;;;;-140.05;100.00;61859.38;5047671;28;20198;-61
2021/12/24 07:55:50;;;;;;;58.75;30.80;;;;;;;-140.05;100.00;61859.38;5048251;28;20315;-62
2021/12/24 07:58:18;;;;;;;61.85;31.15;;;;;;;-140.05;100.00;61859.38;5046441;28;20192;-63
2021/12/24 08:00:46;;;;;;;58.70;30.55;;;;;;;-140.05;100.00;61859.38;5048183;28;20884;-65
2021/12/24 08:03:14;;;;;;;52.40;29.17;;;;;;;-140.05;100.00;61859.38;5047014;28;20227;-59
2021/12/24 08:05:42;;;;;;;52.35;29.30;;;;;;;-140.05;100.00;61859.38;5047444;28;20263;-62
2021/12/24 08:08:10;;;;;;;63.20;29.08;;;;;;;-140.05;100.00;61859.38;5047808;28;20625;-55
2021/12/24 08:10:41;;;;;;;85.40;48.17;;;;;;;-140.05;100.00;61859.38;5063927;28;20196;-63
2021/12/24 08:13:09;;;;;;;57.90;31.95;;;;;;;-140.05;100.00;61859.38;5047832;28;20585;-62
2021/12/24 08:15:36;;;;;;;70.47;34.45;;;;;;;-140.05;100.00;61859.38;5047645;28;20671;-63
2021/12/24 08:18:08;;;;;;;56.63;27.33;;;;;;;-140.05;100.00;61859.38;5049372;28;20671;-61
2021/12/24 08:20:35;;;;;;;56.60;26.63;;;;;;;-140.05;100.00;61859.38;5049034;28;20203;-60
2021/12/24 08:23:02;;;;;;;50.33;26.30;;;;;;;-140.05;100.00;61859.38;5046842;28;20683;-58
2021/12/24 08:25:29;;;;;;;50.08;27.52;;;;;;;-140.05;100.00;61859.38;5048470;28;20202;-59
2021/12/24 08:27:56;;;;;;;35.40;20.88;;;;;;;-140.05;100.00;61859.38;5046532;28;20224;-61
2021/12/24 08:30:23;;;;;;;36.35;21.40;;;;;;;-140.05;100.00;61859.38;5046403;28;20200;-62
2021/12/24 08:32:49;;;;;;;40.60;20.80;;;;;;;-140.05;100.00;61859.38;5045688;28;20283;-64
2021/12/24 08:35:21;;;;;;;41.50;20.80;;;;;;;-140.05;100.00;61859.38;5047422;28;20258;-63
2021/12/24 08:37:49;;;;;;;52.30;23.50;;;;;;;-140.05;100.00;61859.38;5045616;28;20591;-62
2021/12/24 08:40:16;;;;;;;55.05;33.15;;;;;;;-140.05;100.00;61859.38;5047251;28;20200;-62
2021/12/24 08:42:46;;;;;;;45.20;24.33;;;;;;;-140.05;100.00;61859.38;5047644;28;20234;-60
2021/12/24 08:45:13;;;;;;;35.83;19.70;;;;;;;-140.05;100.00;61859.38;5048295;28;20196;-63
2021/12/24 08:47:40;;;;;;;32.42;17.23;;;;;;;-140.05;100.00;61859.38;5048085;28;20555;-57
2021/12/24 08:50:10;;;;;;;28.10;16.48;;;;;;;-140.05;100.00;61859.38;5048987;28;20200;-60
2021/12/24 08:52:37;;;;;;;31.02;16.88;;;;;;;-140.05;100.00;61859.38;5048907;28;20395;-56
2021/12/24 08:55:04;;;;;;;27.00;16.45;;;;;;;-140.05;100.00;61859.38;5047367;28;20725;-63
2021/12/24 08:57:31;;;;;;;25.48;16.25;;;;;;;-140.05;100.00;61859.38;5048201;28;20232;-60
2021/12/24 08:59:58;;;;;;;29.23;17.83;;;;;;;-140.05;100.00;61859.38;5049146;28;20219;-58
2021/12/24 09:02:25;;;;;;;31.02;18.08;;;;;;;-140.05;100.00;61859.38;5048514;28;20683;-58
2021/12/24 09:04:52;;;;;;;32.67;17.98;;;;;;;-140.05;100.00;61859.38;5049692;28;20236;-55
2021/12/24 09:07:19;;;;;;;28.48;16.27;;;;;;;-140.05;100.00;61859.38;5048713;28;20211;-57
2021/12/24 09:09:46;;;;;;;33.03;18.35;;;;;;;-140.05;100.00;61859.38;5049438;28;20218;-58
2021/12/24 09:12:13;;;;;;;29.47;17.77;;;;;;;-140.05;100.00;61859.38;5048606;28;20204;-57
2021/12/24 09:14:40;;;;;;;29.05;17.70;;;;;;;-140.05;100.00;61859.38;5049005;28;20443;-57
2021/12/24 09:17:07;;;;;;;33.05;18.70;;;;;;;-140.05;100.00;61859.38;5049179;28;20801;-57
2021/12/24 09:19:35;;;;;;;30.20;19.33;;;;;;;-140.05;100.00;61859.38;5048270;28;20714;-58
2021/12/24 09:22:02;;;;;;;30.33;18.02;;;;;;;-140.05;100.00;61859.38;5049047;28;20200;-57
2021/12/24 09:24:31;;;;;;;33.13;18.47;;;;;;;-140.05;100.00;61859.38;5048438;28;20195;-60
2021/12/24 09:26:58;;;;;;;29.97;19.03;;;;;;;-140.05;100.00;61859.38;5048961;28;20505;-58
2021/12/24 09:29:26;;;;;;;29.63;17.60;;;;;;;-140.05;100.00;61859.38;5048296;28;20450;-58
2021/12/24 09:31:54;;;;;;;25.40;16.03;;;;;;;-140.05;100.00;61859.38;5048975;28;20442;-62
2021/12/24 09:34:21;;;;;;;25.83;16.67;;;;;;;-140.05;100.00;61859.38;5048096;28;20450;-60
2021/12/24 09:36:48;;;;;;;26.67;17.60;;;;;;;-140.05;100.00;61859.38;5048955;28;20451;-64
2021/12/24 09:39:16;;;;;;;27.00;15.80;;;;;;;-140.05;100.00;61859.38;5047900;28;21004;-58
2021/12/24 09:41:44;;;;;;;23.77;15.90;;;;;;;-140.05;100.00;61859.38;5049221;28;20443;-58
2021/12/24 09:44:13;;;;;;;26.60;15.40;;;;;;;-140.05;100.00;61859.38;5047819;28;21015;-58
2021/12/24 09:46:42;;;;;;;23.67;15.57;;;;;;;-140.05;100.00;61859.38;5048765;28;20435;-57
2021/12/24 09:49:12;;;;;;;23.67;16.10;;;;;;;-140.05;100.00;61859.38;5048291;28;20498;-58
2021/12/24 09:51:43;;;;;;;25.10;15.67;;;;;;;-140.05;100.00;61859.38;5046402;28;20795;-58
2021/12/24 09:54:14;;;;;;;25.63;16.53;;;;;;;-140.05;100.00;61859.38;5047954;28;20454;-56
2021/12/24 09:56:41;;;;;;;26.03;16.40;;;;;;;-140.05;100.00;61859.38;5048588;28;20474;-58
2021/12/24 09:59:09;;;;;;;26.90;16.80;;;;;;;-140.05;100.00;61859.38;5048520;28;20454;-56
2021/12/24 10:01:43;;;;;;;28.63;17.27;;;;;;;-140.05;100.00;61859.38;5051544;28;20439;-58
2021/12/24 10:04:14;;;;;;;25.20;16.57;;;;;;;-140.05;100.00;61859.38;5051931;28;20876;-58
2021/12/24 10:07:07;;;;;;;22.73;15.17;;;;;;;-140.05;100.00;61859.38;5052264;28;20442;-58
2021/12/24 10:09:42;;;;;;;23.13;16.20;;;;;;;-140.05;100.00;61859.38;5051834;28;20693;-54
2021/12/24 10:12:18;;;;;;;24.10;15.90;;;;;;;-140.05;100.00;61859.38;5052082;28;20478;-58
2021/12/24 10:15:00;;;;;;;25.13;16.07;;;;;;;-140.05;100.00;61859.38;5035072;28;20443;-58
2021/12/24 10:17:34;;;;;;;32.10;17.37;;;;;;;-140.05;100.00;61859.38;5051469;28;20447;-60
2021/12/24 10:20:12;;;;;;;26.73;16.87;;;;;;;-140.05;100.00;61859.38;5052239;28;20466;-57
2021/12/24 10:22:52;;;;;;;29.57;17.90;;;;;;;-140.05;100.00;61859.38;5050972;28;20447;-58
2021/12/24 10:25:30;;;;;;;29.90;16.27;;;;;;;-140.05;100.00;61859.38;5051090;28;20470;-57
2021/12/24 10:27:57;;;;;;;21.90;15.00;;;;;;;-140.05;100.00;61859.38;5051325;28;20479;-54
2021/12/24 10:30:31;;;;;;;27.60;16.37;;;;;;;-140.05;100.00;61859.38;5050758;28;20439;-58
2021/12/24 10:33:09;;;;;;;26.37;16.47;;;;;;;-140.05;100.00;61859.38;5049190;28;20443;-53
2021/12/24 10:35:36;;;;;;;59.23;39.67;;;;;;;-140.05;100.00;61859.38;5049004;28;20443;-59
2021/12/24 10:38:17;;;;;;;52.80;40.40;;;;;;;-140.05;100.00;61859.38;5050652;28;20465;-58
2021/12/24 10:40:52;;;;;;;31.53;16.30;;;;;;;-140.05;100.00;61859.38;5050515;28;20533;-59
2021/12/24 10:43:48;;;;;;;27.17;15.70;;;;;;;-140.05;100.00;61859.38;5047126;28;20663;-57
2021/12/24 10:46:18;;;;;;;26.17;16.03;;;;;;;-140.05;100.00;61859.38;5042372;28;20451;-57
2021/12/24 10:52:13;;;;;;;25.70;15.90;;;;;;;-140.05;100.00;61859.38;5045561;28;20450;-56
2021/12/24 10:54:52;;;;;;;33.67;19.47;;;;;;;-140.05;100.00;61859.38;5049526;28;20534;-55
2021/12/24 10:57:23;;;;;;;26.97;17.27;;;;;;;-140.05;100.00;61859.38;5046208;28;20486;-56
2021/12/24 10:59:54;;;;;;;26.67;16.50;;;;;;;-140.05;100.00;61859.38;5047236;28;20448;-54
2021/12/24 11:02:27;;;;;;;24.43;15.27;;;;;;;-140.05;100.00;61859.38;5040205;28;20450;-58
2021/12/24 11:04:54;;;;;;;25.67;15.50;;;;;;;-140.05;100.00;61859.38;5050318;28;20447;-56
2021/12/24 11:07:41;;;;;;;22.07;15.07;;;;;;;-140.05;100.00;61859.38;5045849;28;20921;-58
2021/12/24 11:10:12;;;;;;;25.37;15.20;;;;;;;-140.05;100.00;61859.38;5045779;28;20508;-61
2021/12/24 11:12:42;;;;;;;25.17;14.40;;;;;;;-140.05;100.00;61859.38;5047618;28;20439;-52
2021/12/24 11:15:34;;;;;;;23.23;14.70;;;;;;;-140.05;100.00;61859.38;5033390;28;20488;-57
2021/12/24 11:18:05;;;;;;;24.23;15.27;;;;;;;-140.05;100.00;61859.38;5049978;28;20487;-59
2021/12/24 11:20:34;;;;;;;29.63;16.07;;;;;;;-140.05;100.00;61859.38;5050423;28;20541;-59
2021/12/24 11:23:03;;;;;;;27.77;15.70;;;;;;;-140.05;100.00;61859.38;5050074;28;20500;-57
2021/12/24 11:25:45;;;;;;;24.70;14.83;;;;;;;-140.05;100.00;61859.38;5049400;28;20439;-57
2021/12/24 11:28:14;;;;;;;25.37;14.20;;;;;;;-140.05;100.00;61859.38;5050068;28;20477;-56
2021/12/24 11:30:44;;;;;;;20.90;13.77;;;;;;;-140.05;100.00;61859.38;5050812;28;20449;-54
2021/12/24 11:33:16;;;;;;;24.73;14.43;;;;;;;-140.05;100.00;61859.38;5049943;28;20439;-51
2021/12/24 11:35:45;;;;;;;22.87;14.63;;;;;;;-140.05;100.00;61859.38;5049932;28;20486;-53
2021/12/24 11:38:17;;;;;;;23.03;12.87;;;;;;;-140.05;100.00;61859.38;5049306;28;20439;-55
2021/12/24 11:40:49;;;;;;;21.43;13.47;;;;;;;-140.05;100.00;61859.38;5050659;28;20558;-59
2021/12/24 11:43:18;;;;;;;23.00;13.83;;;;;;;-140.05;100.00;61859.38;5049770;28;20490;-58
2021/12/24 11:45:45;;;;;;;24.07;14.93;;;;;;;-140.05;100.00;61859.38;5050744;28;20442;-56
2021/12/24 11:48:12;;;;;;;23.93;13.50;;;;;;;-140.05;100.00;61859.38;5049390;28;20570;-54
2021/12/24 11:50:40;;;;;;;26.33;15.33;;;;;;;-140.05;100.00;61859.38;5050468;28;20816;-55
2021/12/24 11:53:13;;;;;;;26.83;14.77;;;;;;;-140.05;100.00;61859.38;5049548;28;20453;-59
2021/12/24 11:55:45;;;;;;;25.93;16.17;;;;;;;-140.05;100.00;61859.38;5049952;28;20888;-56
2021/12/24 11:58:18;;;;;;;26.00;15.53;;;;;;;-140.05;100.00;61859.38;5049531;28;20434;-58
2021/12/24 12:00:51;;;;;;;24.83;16.13;;;;;;;-140.05;100.00;61859.38;5050410;28;20503;-59
2021/12/24 12:03:49;;;;;;;21.80;15.00;;;;;;;-140.05;100.00;61859.38;5049042;28;20453;-59
2021/12/24 12:06:22;;;;;;;20.93;14.90;;;;;;;-140.05;100.00;61859.38;5049875;28;20465;-57
2021/12/24 12:08:56;;;;;;;21.90;14.83;;;;;;;-140.05;100.00;61859.38;5049630;28;20486;-56
2021/12/24 12:11:27;;;;;;;24.97;15.40;;;;;;;-140.05;100.00;61859.38;5049289;28;20816;-56
2021/12/24 12:14:02;;;;;;;27.97;15.37;;;;;;;-140.05;100.00;61859.38;5049782;28;20539;-56
2021/12/24 12:16:56;;;;;;;26.03;15.37;;;;;;;-140.05;100.00;61859.38;5050344;28;20447;-54
2021/12/24 12:19:38;;;;;;;21.90;15.20;;;;;;;-140.05;100.00;61859.38;5048673;28;20443;-56
2021/12/24 12:25:03;;;;;;;15.07;10.93;;;;;;;-140.05;100.00;61859.38;5049516;28;20212;-54
2021/12/24 12:27:43;;;;;;;18.27;14.77;;;;;;;-140.05;100.00;61859.38;5048035;28;20621;-59
2021/12/24 12:30:39;;;;;;;14.07;10.60;;;;;;;-140.05;100.00;61859.38;5049447;28;20206;-59
2021/12/24 12:33:08;;;;;;;16.40;11.07;;;;;;;-140.05;100.00;61859.38;5048762;28;21035;-59
2021/12/24 12:35:40;;;;;;;29.07;22.80;;;;;;;-140.05;100.00;61859.38;5048962;28;20474;-58
2021/12/24 12:38:25;;;;;;;13.67;8.20;;;;;;;-140.05;100.00;61859.38;5048148;28;20450;-56
2021/12/24 12:40:53;;;;;;;28.43;15.40;;;;;;;-140.05;100.00;61859.38;5049130;28;20477;-57
2021/12/24 12:43:22;;;;;;;8.33;5.80;;;;;;;-140.05;100.00;61859.38;5049003;28;20447;-56
2021/12/24 12:45:52;;;;;;;10.70;8.13;;;;;;;-140.05;100.00;61859.38;5049415;28;20492;-60
2021/12/24 12:48:44;;;;;;;3.63;2.97;;;;;;;-140.05;100.00;61859.38;5048466;28;20462;-58
2021/12/24 12:51:11;;;;;;;9.57;3.30;;;;;;;-140.05;100.00;61859.38;5048491;28;20447;-57